sensor_id;sensor_type;location;lat;lon;timestamp;P1;durP1;ratioP1;P2;durP2;ratioP2
19593;SDS011;9944;48.240;16.478;2024-01-10T00:01:26;29.83;;;16.00;;
19593;SDS011;9944;48.240;16.478;2024-01-10T00:05:29;39.87;;;17.10;;
19593;SDS011;9944;48.240;16.478;2024-01-10T00:09:32;37.17;;;17.57;;
19593;SDS011;9944;48.240;16.478;2024-01-10T00:13:37;36.63;;;16.67;;
19593;SDS011;9944;48.240;16.478;2024-01-10T00:17:41;32.33;;;17.10;;
19593;SDS011;9944;48.240;16.478;2024-01-10T00:21:44;34.90;;;16.60;;
19593;SDS011;9944;48.240;16.478;2024-01-10T00:25:47;35.10;;;18.07;;
19593;SDS011;9944;48.240;16.478;2024-01-10T00:29:52;34.93;;;18.07;;
19593;SDS011;9944;48.240;16.478;2024-01-10T00:33:57;34.37;;;17.33;;
19593;SDS011;9944;48.240;16.478;2024-01-10T00:38:00;36.63;;;17.47;;
19593;SDS011;9944;48.240;16.478;2024-01-10T00:42:04;40.47;;;17.83;;
19593;SDS011;9944;48.240;16.478;2024-01-10T00:46:08;40.60;;;18.40;;
19593;SDS011;9944;48.240;16.478;2024-01-10T00:50:11;40.70;;;19.37;;
19593;SDS011;9944;48.240;16.478;2024-01-10T00:54:14;37.97;;;19.17;;
19593;SDS011;9944;48.240;16.478;2024-01-10T00:58:18;42.47;;;20.47;;
19593;SDS011;9944;48.240;16.478;2024-01-10T01:02:23;40.70;;;18.77;;
19593;SDS011;9944;48.240;16.478;2024-01-10T01:06:26;40.20;;;19.10;;
19593;SDS011;9944;48.240;16.478;2024-01-10T01:10:29;38.77;;;19.80;;
19593;SDS011;9944;48.240;16.478;2024-01-10T01:14:36;41.20;;;19.03;;
19593;SDS011;9944;48.240;16.478;2024-01-10T01:18:40;42.17;;;20.13;;
19593;SDS011;9944;48.240;16.478;2024-01-10T01:22:47;41.67;;;18.77;;
19593;SDS011;9944;48.240;16.478;2024-01-10T01:26:50;39.27;;;19.63;;
19593;SDS011;9944;48.240;16.478;2024-01-10T01:30:54;43.73;;;20.47;;
19593;SDS011;9944;48.240;16.478;2024-01-10T01:34:58;38.03;;;18.30;;
19593;SDS011;9944;48.240;16.478;2024-01-10T01:39:02;39.43;;;19.37;;
19593;SDS011;9944;48.240;16.478;2024-01-10T01:43:17;43.00;;;19.77;;
19593;SDS011;9944;48.240;16.478;2024-01-10T01:47:24;39.20;;;18.87;;
19593;SDS011;9944;48.240;16.478;2024-01-10T01:51:30;43.13;;;20.07;;
19593;SDS011;9944;48.240;16.478;2024-01-10T01:55:35;43.93;;;20.07;;
19593;SDS011;9944;48.240;16.478;2024-01-10T01:59:38;42.87;;;20.33;;
19593;SDS011;9944;48.240;16.478;2024-01-10T02:03:41;41.37;;;20.40;;
19593;SDS011;9944;48.240;16.478;2024-01-10T02:07:46;40.90;;;19.50;;
19593;SDS011;9944;48.240;16.478;2024-01-10T02:11:49;41.87;;;19.90;;
19593;SDS011;9944;48.240;16.478;2024-01-10T02:15:53;48.07;;;21.50;;
19593;SDS011;9944;48.240;16.478;2024-01-10T02:20:07;38.70;;;20.57;;
19593;SDS011;9944;48.240;16.478;2024-01-10T02:24:12;40.63;;;18.93;;
19593;SDS011;9944;48.240;16.478;2024-01-10T02:28:17;43.10;;;19.87;;
19593;SDS011;9944;48.240;16.478;2024-01-10T02:32:20;42.87;;;21.47;;
19593;SDS011;9944;48.240;16.478;2024-01-10T02:36:24;42.13;;;20.20;;
19593;SDS011;9944;48.240;16.478;2024-01-10T02:40:27;41.47;;;19.90;;
19593;SDS011;9944;48.240;16.478;2024-01-10T02:44:32;42.80;;;20.33;;
19593;SDS011;9944;48.240;16.478;2024-01-10T02:48:35;39.60;;;20.03;;
19593;SDS011;9944;48.240;16.478;2024-01-10T02:52:38;45.07;;;20.53;;
19593;SDS011;9944;48.240;16.478;2024-01-10T02:56:41;45.53;;;20.60;;
19593;SDS011;9944;48.240;16.478;2024-01-10T03:00:46;42.70;;;20.40;;
19593;SDS011;9944;48.240;16.478;2024-01-10T03:04:50;42.00;;;20.53;;
19593;SDS011;9944;48.240;16.478;2024-01-10T03:08:54;45.00;;;21.10;;
19593;SDS011;9944;48.240;16.478;2024-01-10T03:12:58;40.30;;;19.57;;
19593;SDS011;9944;48.240;16.478;2024-01-10T03:17:03;43.67;;;20.83;;
19593;SDS011;9944;48.240;16.478;2024-01-10T03:21:06;44.03;;;19.83;;
19593;SDS011;9944;48.240;16.478;2024-01-10T03:25:10;39.03;;;19.70;;
19593;SDS011;9944;48.240;16.478;2024-01-10T03:29:13;44.73;;;20.60;;
19593;SDS011;9944;48.240;16.478;2024-01-10T03:33:18;43.03;;;19.07;;
19593;SDS011;9944;48.240;16.478;2024-01-10T03:37:21;41.40;;;20.27;;
19593;SDS011;9944;48.240;16.478;2024-01-10T03:41:24;46.80;;;21.10;;
19593;SDS011;9944;48.240;16.478;2024-01-10T03:45:27;45.80;;;21.47;;
19593;SDS011;9944;48.240;16.478;2024-01-10T03:49:33;42.73;;;20.27;;
19593;SDS011;9944;48.240;16.478;2024-01-10T03:53:36;44.70;;;21.13;;
19593;SDS011;9944;48.240;16.478;2024-01-10T03:57:40;43.87;;;19.50;;
19593;SDS011;9944;48.240;16.478;2024-01-10T04:01:43;37.23;;;19.03;;
19593;SDS011;9944;48.240;16.478;2024-01-10T04:05:48;38.33;;;19.53;;
19593;SDS011;9944;48.240;16.478;2024-01-10T04:09:51;40.30;;;20.83;;
19593;SDS011;9944;48.240;16.478;2024-01-10T04:13:54;40.80;;;20.93;;
19593;SDS011;9944;48.240;16.478;2024-01-10T04:17:58;40.87;;;20.40;;
19593;SDS011;9944;48.240;16.478;2024-01-10T04:22:03;47.47;;;21.27;;
19593;SDS011;9944;48.240;16.478;2024-01-10T04:26:06;43.97;;;20.83;;
19593;SDS011;9944;48.240;16.478;2024-01-10T04:30:10;44.33;;;21.70;;
19593;SDS011;9944;48.240;16.478;2024-01-10T04:34:14;45.33;;;23.20;;
19593;SDS011;9944;48.240;16.478;2024-01-10T04:38:18;46.93;;;22.00;;
19593;SDS011;9944;48.240;16.478;2024-01-10T04:42:24;43.67;;;21.23;;
19593;SDS011;9944;48.240;16.478;2024-01-10T04:46:28;47.07;;;22.20;;
19593;SDS011;9944;48.240;16.478;2024-01-10T04:50:31;49.00;;;22.90;;
19593;SDS011;9944;48.240;16.478;2024-01-10T04:54:36;47.33;;;22.70;;
19593;SDS011;9944;48.240;16.478;2024-01-10T04:58:39;52.00;;;23.40;;
19593;SDS011;9944;48.240;16.478;2024-01-10T05:02:42;53.50;;;24.30;;
19593;SDS011;9944;48.240;16.478;2024-01-10T05:06:46;52.43;;;24.93;;
19593;SDS011;9944;48.240;16.478;2024-01-10T05:10:51;50.97;;;25.10;;
19593;SDS011;9944;48.240;16.478;2024-01-10T05:14:54;49.03;;;23.60;;
19593;SDS011;9944;48.240;16.478;2024-01-10T05:19:00;48.40;;;23.13;;
19593;SDS011;9944;48.240;16.478;2024-01-10T05:23:04;45.13;;;21.63;;
19593;SDS011;9944;48.240;16.478;2024-01-10T05:27:09;48.37;;;22.53;;
19593;SDS011;9944;48.240;16.478;2024-01-10T05:31:13;50.97;;;22.77;;
19593;SDS011;9944;48.240;16.478;2024-01-10T05:35:16;48.97;;;22.57;;
19593;SDS011;9944;48.240;16.478;2024-01-10T05:39:19;54.27;;;24.47;;
19593;SDS011;9944;48.240;16.478;2024-01-10T05:43:25;44.00;;;21.93;;
19593;SDS011;9944;48.240;16.478;2024-01-10T05:47:28;43.00;;;21.70;;
19593;SDS011;9944;48.240;16.478;2024-01-10T05:51:31;49.87;;;21.80;;
19593;SDS011;9944;48.240;16.478;2024-01-10T05:55:34;50.93;;;23.30;;
19593;SDS011;9944;48.240;16.478;2024-01-10T05:59:39;50.07;;;22.70;;
19593;SDS011;9944;48.240;16.478;2024-01-10T06:03:43;53.37;;;23.43;;
19593;SDS011;9944;48.240;16.478;2024-01-10T06:07:46;51.07;;;22.97;;
19593;SDS011;9944;48.240;16.478;2024-01-10T06:11:49;53.40;;;23.87;;
19593;SDS011;9944;48.240;16.478;2024-01-10T06:15:54;52.57;;;23.87;;
19593;SDS011;9944;48.240;16.478;2024-01-10T06:19:57;49.37;;;22.47;;
19593;SDS011;9944;48.240;16.478;2024-01-10T06:24:01;50.90;;;23.70;;
19593;SDS011;9944;48.240;16.478;2024-01-10T06:28:05;50.03;;;24.27;;
19593;SDS011;9944;48.240;16.478;2024-01-10T06:32:10;51.63;;;23.50;;
19593;SDS011;9944;48.240;16.478;2024-01-10T06:36:13;51.97;;;22.77;;
19593;SDS011;9944;48.240;16.478;2024-01-10T06:40:16;49.90;;;23.23;;
19593;SDS011;9944;48.240;16.478;2024-01-10T06:44:19;47.50;;;23.17;;
19593;SDS011;9944;48.240;16.478;2024-01-10T06:48:24;49.27;;;22.73;;
19593;SDS011;9944;48.240;16.478;2024-01-10T06:52:28;48.13;;;23.77;;
19593;SDS011;9944;48.240;16.478;2024-01-10T06:56:31;46.90;;;22.60;;
19593;SDS011;9944;48.240;16.478;2024-01-10T07:00:35;57.17;;;25.70;;
19593;SDS011;9944;48.240;16.478;2024-01-10T07:04:41;47.27;;;22.50;;
19593;SDS011;9944;48.240;16.478;2024-01-10T07:08:46;46.03;;;22.97;;
19593;SDS011;9944;48.240;16.478;2024-01-10T07:12:51;54.03;;;23.63;;
19593;SDS011;9944;48.240;16.478;2024-01-10T07:16:54;50.60;;;23.13;;
19593;SDS011;9944;48.240;16.478;2024-01-10T07:21:00;50.37;;;24.63;;
19593;SDS011;9944;48.240;16.478;2024-01-10T07:25:03;48.20;;;23.90;;
19593;SDS011;9944;48.240;16.478;2024-01-10T07:29:10;58.23;;;26.13;;
19593;SDS011;9944;48.240;16.478;2024-01-10T07:33:13;51.30;;;24.20;;
19593;SDS011;9944;48.240;16.478;2024-01-10T07:37:19;55.70;;;26.90;;
19593;SDS011;9944;48.240;16.478;2024-01-10T07:41:24;55.87;;;25.90;;
19593;SDS011;9944;48.240;16.478;2024-01-10T07:45:28;58.40;;;25.23;;
19593;SDS011;9944;48.240;16.478;2024-01-10T07:49:31;53.33;;;25.20;;
19593;SDS011;9944;48.240;16.478;2024-01-10T07:53:35;52.70;;;25.43;;
19593;SDS011;9944;48.240;16.478;2024-01-10T07:57:39;51.13;;;25.30;;
19593;SDS011;9944;48.240;16.478;2024-01-10T08:01:43;55.70;;;26.17;;
19593;SDS011;9944;48.240;16.478;2024-01-10T08:05:56;55.87;;;25.67;;
19593;SDS011;9944;48.240;16.478;2024-01-10T08:10:02;52.13;;;25.37;;
19593;SDS011;9944;48.240;16.478;2024-01-10T08:14:06;50.60;;;24.93;;
19593;SDS011;9944;48.240;16.478;2024-01-10T08:18:09;53.60;;;25.70;;
19593;SDS011;9944;48.240;16.478;2024-01-10T08:22:13;50.50;;;25.80;;
19593;SDS011;9944;48.240;16.478;2024-01-10T08:26:18;60.13;;;24.97;;
19593;SDS011;9944;48.240;16.478;2024-01-10T08:30:22;49.97;;;24.47;;
19593;SDS011;9944;48.240;16.478;2024-01-10T08:34:25;52.67;;;24.90;;
19593;SDS011;9944;48.240;16.478;2024-01-10T08:38:28;49.77;;;24.37;;
19593;SDS011;9944;48.240;16.478;2024-01-10T08:42:33;55.73;;;24.37;;
19593;SDS011;9944;48.240;16.478;2024-01-10T08:46:36;51.10;;;24.43;;
19593;SDS011;9944;48.240;16.478;2024-01-10T08:50:39;48.07;;;23.50;;
19593;SDS011;9944;48.240;16.478;2024-01-10T08:54:43;49.77;;;23.70;;
19593;SDS011;9944;48.240;16.478;2024-01-10T08:58:47;50.73;;;23.57;;
19593;SDS011;9944;48.240;16.478;2024-01-10T09:02:50;46.50;;;23.17;;
19593;SDS011;9944;48.240;16.478;2024-01-10T09:06:55;49.93;;;23.17;;
19593;SDS011;9944;48.240;16.478;2024-01-10T09:10:58;49.43;;;25.50;;
19593;SDS011;9944;48.240;16.478;2024-01-10T09:15:04;55.47;;;25.37;;
19593;SDS011;9944;48.240;16.478;2024-01-10T09:19:09;49.60;;;25.77;;
19593;SDS011;9944;48.240;16.478;2024-01-10T09:23:16;50.60;;;25.27;;
19593;SDS011;9944;48.240;16.478;2024-01-10T09:27:20;48.03;;;23.03;;
19593;SDS011;9944;48.240;16.478;2024-01-10T09:31:25;49.60;;;25.07;;
19593;SDS011;9944;48.240;16.478;2024-01-10T09:35:28;50.63;;;25.20;;
19593;SDS011;9944;48.240;16.478;2024-01-10T09:39:32;50.53;;;25.00;;
19593;SDS011;9944;48.240;16.478;2024-01-10T09:43:35;44.37;;;22.80;;
19593;SDS011;9944;48.240;16.478;2024-01-10T09:47:40;48.60;;;23.83;;
19593;SDS011;9944;48.240;16.478;2024-01-10T09:51:48;46.67;;;24.67;;
19593;SDS011;9944;48.240;16.478;2024-01-10T09:55:52;47.57;;;24.37;;
19593;SDS011;9944;48.240;16.478;2024-01-10T09:59:58;48.27;;;23.90;;
19593;SDS011;9944;48.240;16.478;2024-01-10T10:04:03;49.93;;;24.80;;
19593;SDS011;9944;48.240;16.478;2024-01-10T10:08:06;47.37;;;22.47;;
19593;SDS011;9944;48.240;16.478;2024-01-10T10:12:11;47.03;;;23.30;;
19593;SDS011;9944;48.240;16.478;2024-01-10T10:16:14;54.37;;;23.77;;
19593;SDS011;9944;48.240;16.478;2024-01-10T10:20:28;44.53;;;22.20;;
19593;SDS011;9944;48.240;16.478;2024-01-10T10:24:34;42.33;;;20.37;;
19593;SDS011;9944;48.240;16.478;2024-01-10T10:28:37;39.17;;;19.83;;
19593;SDS011;9944;48.240;16.478;2024-01-10T10:32:42;35.07;;;17.53;;
19593;SDS011;9944;48.240;16.478;2024-01-10T10:36:47;31.40;;;16.80;;
19593;SDS011;9944;48.240;16.478;2024-01-10T10:40:50;35.90;;;17.23;;
19593;SDS011;9944;48.240;16.478;2024-01-10T10:44:54;30.87;;;15.63;;
19593;SDS011;9944;48.240;16.478;2024-01-10T10:49:06;26.83;;;14.00;;
19593;SDS011;9944;48.240;16.478;2024-01-10T10:53:16;23.93;;;12.40;;
19593;SDS011;9944;48.240;16.478;2024-01-10T10:57:22;26.37;;;13.73;;
19593;SDS011;9944;48.240;16.478;2024-01-10T11:01:28;25.27;;;13.23;;
19593;SDS011;9944;48.240;16.478;2024-01-10T11:05:32;24.67;;;12.47;;
19593;SDS011;9944;48.240;16.478;2024-01-10T11:09:37;29.40;;;12.57;;
19593;SDS011;9944;48.240;16.478;2024-01-10T11:13:50;24.10;;;11.80;;
19593;SDS011;9944;48.240;16.478;2024-01-10T11:18:07;25.70;;;11.80;;
19593;SDS011;9944;48.240;16.478;2024-01-10T11:22:22;23.30;;;11.93;;
19593;SDS011;9944;48.240;16.478;2024-01-10T11:26:43;22.77;;;11.77;;
19593;SDS011;9944;48.240;16.478;2024-01-10T11:30:48;23.37;;;12.00;;
19593;SDS011;9944;48.240;16.478;2024-01-10T11:34:54;21.03;;;12.87;;
19593;SDS011;9944;48.240;16.478;2024-01-10T11:38:58;29.30;;;13.87;;
19593;SDS011;9944;48.240;16.478;2024-01-10T11:43:06;25.27;;;13.13;;
19593;SDS011;9944;48.240;16.478;2024-01-10T11:47:15;23.30;;;11.80;;
19593;SDS011;9944;48.240;16.478;2024-01-10T11:51:20;27.20;;;12.77;;
19593;SDS011;9944;48.240;16.478;2024-01-10T12:00:01;21.93;;;12.30;;
19593;SDS011;9944;48.240;16.478;2024-01-10T12:04:07;22.20;;;11.33;;
19593;SDS011;9944;48.240;16.478;2024-01-10T12:08:24;19.00;;;10.47;;
19593;SDS011;9944;48.240;16.478;2024-01-10T12:12:28;23.17;;;12.23;;
19593;SDS011;9944;48.240;16.478;2024-01-10T12:16:34;21.33;;;10.97;;
19593;SDS011;9944;48.240;16.478;2024-01-10T12:20:37;18.87;;;10.77;;
19593;SDS011;9944;48.240;16.478;2024-01-10T12:24:44;20.73;;;9.93;;
19593;SDS011;9944;48.240;16.478;2024-01-10T12:28:55;20.27;;;10.90;;
19593;SDS011;9944;48.240;16.478;2024-01-10T12:33:00;23.53;;;11.73;;
19593;SDS011;9944;48.240;16.478;2024-01-10T12:37:04;27.27;;;12.77;;
19593;SDS011;9944;48.240;16.478;2024-01-10T12:41:07;23.23;;;12.37;;
19593;SDS011;9944;48.240;16.478;2024-01-10T12:45:20;21.90;;;11.70;;
19593;SDS011;9944;48.240;16.478;2024-01-10T12:49:24;23.87;;;11.80;;
19593;SDS011;9944;48.240;16.478;2024-01-10T12:53:28;25.43;;;13.00;;
19593;SDS011;9944;48.240;16.478;2024-01-10T12:57:31;22.93;;;11.43;;
19593;SDS011;9944;48.240;16.478;2024-01-10T13:01:34;26.33;;;11.47;;
19593;SDS011;9944;48.240;16.478;2024-01-10T13:05:39;20.80;;;11.13;;
19593;SDS011;9944;48.240;16.478;2024-01-10T13:09:43;20.60;;;11.53;;
19593;SDS011;9944;48.240;16.478;2024-01-10T13:13:46;24.20;;;11.77;;
19593;SDS011;9944;48.240;16.478;2024-01-10T13:17:49;22.63;;;11.53;;
19593;SDS011;9944;48.240;16.478;2024-01-10T13:21:54;27.43;;;11.13;;
19593;SDS011;9944;48.240;16.478;2024-01-10T13:25:57;22.13;;;12.10;;
19593;SDS011;9944;48.240;16.478;2024-01-10T13:30:02;24.67;;;12.87;;
19593;SDS011;9944;48.240;16.478;2024-01-10T13:34:07;22.23;;;11.77;;
19593;SDS011;9944;48.240;16.478;2024-01-10T13:38:15;25.03;;;12.77;;
19593;SDS011;9944;48.240;16.478;2024-01-10T13:42:18;25.37;;;12.50;;
19593;SDS011;9944;48.240;16.478;2024-01-10T13:46:22;22.67;;;12.10;;
19593;SDS011;9944;48.240;16.478;2024-01-10T13:50:26;25.43;;;12.67;;
19593;SDS011;9944;48.240;16.478;2024-01-10T13:54:32;21.47;;;11.97;;
19593;SDS011;9944;48.240;16.478;2024-01-10T13:58:35;24.63;;;12.93;;
19593;SDS011;9944;48.240;16.478;2024-01-10T14:02:38;24.73;;;14.07;;
19593;SDS011;9944;48.240;16.478;2024-01-10T14:06:41;30.57;;;14.67;;
19593;SDS011;9944;48.240;16.478;2024-01-10T14:10:46;25.23;;;14.07;;
19593;SDS011;9944;48.240;16.478;2024-01-10T14:14:49;27.70;;;14.40;;
19593;SDS011;9944;48.240;16.478;2024-01-10T14:18:53;29.83;;;14.73;;
19593;SDS011;9944;48.240;16.478;2024-01-10T14:22:57;28.67;;;14.10;;
19593;SDS011;9944;48.240;16.478;2024-01-10T14:27:04;27.50;;;13.67;;
19593;SDS011;9944;48.240;16.478;2024-01-10T14:31:09;27.03;;;13.60;;
19593;SDS011;9944;48.240;16.478;2024-01-10T14:35:30;26.93;;;13.30;;
19593;SDS011;9944;48.240;16.478;2024-01-10T14:39:34;25.27;;;13.73;;
19593;SDS011;9944;48.240;16.478;2024-01-10T14:43:42;21.97;;;13.20;;
19593;SDS011;9944;48.240;16.478;2024-01-10T14:47:45;26.90;;;14.10;;
19593;SDS011;9944;48.240;16.478;2024-01-10T14:51:48;24.10;;;13.40;;
19593;SDS011;9944;48.240;16.478;2024-01-10T14:55:51;23.60;;;12.57;;
19593;SDS011;9944;48.240;16.478;2024-01-10T14:59:56;22.70;;;12.17;;
19593;SDS011;9944;48.240;16.478;2024-01-10T15:04:01;23.47;;;12.70;;
19593;SDS011;9944;48.240;16.478;2024-01-10T15:08:05;23.13;;;11.83;;
19593;SDS011;9944;48.240;16.478;2024-01-10T15:12:09;27.30;;;12.40;;
19593;SDS011;9944;48.240;16.478;2024-01-10T15:16:14;23.23;;;11.97;;
19593;SDS011;9944;48.240;16.478;2024-01-10T15:20:17;19.53;;;11.23;;
19593;SDS011;9944;48.240;16.478;2024-01-10T15:24:20;24.77;;;11.80;;
19593;SDS011;9944;48.240;16.478;2024-01-10T15:28:23;19.73;;;11.07;;
19593;SDS011;9944;48.240;16.478;2024-01-10T15:32:28;20.07;;;11.70;;
19593;SDS011;9944;48.240;16.478;2024-01-10T15:36:32;19.73;;;11.03;;
19593;SDS011;9944;48.240;16.478;2024-01-10T15:40:35;21.83;;;11.20;;
19593;SDS011;9944;48.240;16.478;2024-01-10T15:44:38;22.07;;;11.23;;
19593;SDS011;9944;48.240;16.478;2024-01-10T15:48:44;20.57;;;11.37;;
19593;SDS011;9944;48.240;16.478;2024-01-10T15:52:47;20.27;;;11.17;;
19593;SDS011;9944;48.240;16.478;2024-01-10T15:56:53;20.87;;;10.57;;
19593;SDS011;9944;48.240;16.478;2024-01-10T16:00:57;23.27;;;11.80;;
19593;SDS011;9944;48.240;16.478;2024-01-10T16:05:02;21.63;;;11.80;;
19593;SDS011;9944;48.240;16.478;2024-01-10T16:09:06;23.27;;;12.03;;
19593;SDS011;9944;48.240;16.478;2024-01-10T16:13:11;23.93;;;11.73;;
19593;SDS011;9944;48.240;16.478;2024-01-10T16:17:14;22.73;;;11.70;;
19593;SDS011;9944;48.240;16.478;2024-01-10T16:21:19;22.50;;;12.20;;
19593;SDS011;9944;48.240;16.478;2024-01-10T16:25:22;21.50;;;12.27;;
19593;SDS011;9944;48.240;16.478;2024-01-10T16:29:25;19.33;;;11.80;;
19593;SDS011;9944;48.240;16.478;2024-01-10T16:33:29;24.53;;;12.83;;
19593;SDS011;9944;48.240;16.478;2024-01-10T16:37:33;22.73;;;12.03;;
19593;SDS011;9944;48.240;16.478;2024-01-10T16:41:36;22.73;;;12.07;;
19593;SDS011;9944;48.240;16.478;2024-01-10T16:45:40;23.27;;;12.77;;
19593;SDS011;9944;48.240;16.478;2024-01-10T16:49:44;21.40;;;11.70;;
19593;SDS011;9944;48.240;16.478;2024-01-10T16:53:49;24.90;;;12.53;;
19593;SDS011;9944;48.240;16.478;2024-01-10T16:57:52;23.40;;;12.33;;
19593;SDS011;9944;48.240;16.478;2024-01-10T17:01:55;22.93;;;12.73;;
19593;SDS011;9944;48.240;16.478;2024-01-10T17:05:59;21.53;;;12.37;;
19593;SDS011;9944;48.240;16.478;2024-01-10T17:10:04;21.80;;;12.73;;
19593;SDS011;9944;48.240;16.478;2024-01-10T17:14:07;24.00;;;12.73;;
19593;SDS011;9944;48.240;16.478;2024-01-10T17:18:11;25.67;;;12.10;;
19593;SDS011;9944;48.240;16.478;2024-01-10T17:22:14;21.80;;;12.37;;
19593;SDS011;9944;48.240;16.478;2024-01-10T17:26:28;22.87;;;12.57;;
19593;SDS011;9944;48.240;16.478;2024-01-10T17:30:31;24.27;;;12.60;;
19593;SDS011;9944;48.240;16.478;2024-01-10T17:34:35;22.87;;;12.73;;
19593;SDS011;9944;48.240;16.478;2024-01-10T17:38:38;20.83;;;11.80;;
19593;SDS011;9944;48.240;16.478;2024-01-10T17:42:43;23.37;;;12.80;;
19593;SDS011;9944;48.240;16.478;2024-01-10T17:46:47;23.30;;;12.00;;
19593;SDS011;9944;48.240;16.478;2024-01-10T17:50:50;23.83;;;13.27;;
19593;SDS011;9944;48.240;16.478;2024-01-10T17:54:53;25.93;;;12.63;;
19593;SDS011;9944;48.240;16.478;2024-01-10T17:58:58;21.80;;;12.47;;
19593;SDS011;9944;48.240;16.478;2024-01-10T18:03:01;23.87;;;12.50;;
19593;SDS011;9944;48.240;16.478;2024-01-10T18:07:06;22.13;;;12.10;;
19593;SDS011;9944;48.240;16.478;2024-01-10T18:11:10;22.87;;;12.80;;
19593;SDS011;9944;48.240;16.478;2024-01-10T18:15:15;27.00;;;12.77;;
19593;SDS011;9944;48.240;16.478;2024-01-10T18:19:18;21.47;;;12.10;;
19593;SDS011;9944;48.240;16.478;2024-01-10T18:23:22;26.67;;;12.83;;
19593;SDS011;9944;48.240;16.478;2024-01-10T18:27:26;23.10;;;12.43;;
19593;SDS011;9944;48.240;16.478;2024-01-10T18:31:31;19.73;;;11.80;;
19593;SDS011;9944;48.240;16.478;2024-01-10T18:35:35;24.43;;;11.80;;
19593;SDS011;9944;48.240;16.478;2024-01-10T18:39:38;26.10;;;13.27;;
19593;SDS011;9944;48.240;16.478;2024-01-10T18:43:41;26.67;;;13.03;;
19593;SDS011;9944;48.240;16.478;2024-01-10T18:47:46;25.93;;;12.67;;
19593;SDS011;9944;48.240;16.478;2024-01-10T18:51:50;22.60;;;12.73;;
19593;SDS011;9944;48.240;16.478;2024-01-10T18:55:55;22.27;;;12.47;;
19593;SDS011;9944;48.240;16.478;2024-01-10T18:59:58;24.30;;;12.87;;
19593;SDS011;9944;48.240;16.478;2024-01-10T19:04:04;24.57;;;13.43;;
19593;SDS011;9944;48.240;16.478;2024-01-10T19:08:07;24.67;;;13.60;;
19593;SDS011;9944;48.240;16.478;2024-01-10T19:12:11;25.73;;;13.83;;
19593;SDS011;9944;48.240;16.478;2024-01-10T19:16:14;22.87;;;12.70;;
19593;SDS011;9944;48.240;16.478;2024-01-10T19:20:19;28.00;;;13.83;;
19593;SDS011;9944;48.240;16.478;2024-01-10T19:24:22;22.70;;;12.83;;
19593;SDS011;9944;48.240;16.478;2024-01-10T19:28:26;24.30;;;13.27;;
19593;SDS011;9944;48.240;16.478;2024-01-10T19:32:29;24.20;;;12.40;;
19593;SDS011;9944;48.240;16.478;2024-01-10T19:36:35;23.63;;;12.60;;
19593;SDS011;9944;48.240;16.478;2024-01-10T19:40:39;26.43;;;13.37;;
19593;SDS011;9944;48.240;16.478;2024-01-10T19:44:42;23.23;;;13.13;;
19593;SDS011;9944;48.240;16.478;2024-01-10T19:48:45;25.67;;;13.73;;
19593;SDS011;9944;48.240;16.478;2024-01-10T19:52:51;25.73;;;14.00;;
19593;SDS011;9944;48.240;16.478;2024-01-10T19:56:54;23.73;;;12.93;;
19593;SDS011;9944;48.240;16.478;2024-01-10T20:00:58;22.03;;;12.93;;
19593;SDS011;9944;48.240;16.478;2024-01-10T20:05:02;23.40;;;13.33;;
19593;SDS011;9944;48.240;16.478;2024-01-10T20:09:07;24.23;;;12.90;;
19593;SDS011;9944;48.240;16.478;2024-01-10T20:13:11;27.43;;;14.20;;
19593;SDS011;9944;48.240;16.478;2024-01-10T20:17:16;23.73;;;12.97;;
19593;SDS011;9944;48.240;16.478;2024-01-10T20:21:19;22.87;;;12.63;;
19593;SDS011;9944;48.240;16.478;2024-01-10T20:25:24;28.00;;;14.03;;
19593;SDS011;9944;48.240;16.478;2024-01-10T20:29:29;25.23;;;12.33;;
19593;SDS011;9944;48.240;16.478;2024-01-10T20:33:33;27.30;;;13.63;;
19593;SDS011;9944;48.240;16.478;2024-01-10T20:37:36;25.40;;;13.70;;
19593;SDS011;9944;48.240;16.478;2024-01-10T20:41:41;25.23;;;13.60;;
19593;SDS011;9944;48.240;16.478;2024-01-10T20:45:44;27.97;;;13.30;;
19593;SDS011;9944;48.240;16.478;2024-01-10T20:49:48;27.60;;;13.70;;
19593;SDS011;9944;48.240;16.478;2024-01-10T20:53:51;26.00;;;12.90;;
19593;SDS011;9944;48.240;16.478;2024-01-10T20:57:56;23.93;;;13.07;;
19593;SDS011;9944;48.240;16.478;2024-01-10T21:01:59;26.30;;;13.23;;
19593;SDS011;9944;48.240;16.478;2024-01-10T21:06:03;27.73;;;13.40;;
19593;SDS011;9944;48.240;16.478;2024-01-10T21:10:07;24.47;;;12.57;;
19593;SDS011;9944;48.240;16.478;2024-01-10T21:14:12;22.87;;;13.07;;
19593;SDS011;9944;48.240;16.478;2024-01-10T21:18:15;23.90;;;12.77;;
19593;SDS011;9944;48.240;16.478;2024-01-10T21:22:19;24.37;;;13.27;;
19593;SDS011;9944;48.240;16.478;2024-01-10T21:26:22;25.10;;;13.33;;
19593;SDS011;9944;48.240;16.478;2024-01-10T21:30:27;24.90;;;13.43;;
19593;SDS011;9944;48.240;16.478;2024-01-10T21:34:30;24.10;;;13.37;;
19593;SDS011;9944;48.240;16.478;2024-01-10T21:38:34;27.37;;;14.00;;
19593;SDS011;9944;48.240;16.478;2024-01-10T21:42:37;24.40;;;13.30;;
19593;SDS011;9944;48.240;16.478;2024-01-10T21:46:42;23.27;;;12.47;;
19593;SDS011;9944;48.240;16.478;2024-01-10T21:50:45;25.87;;;13.23;;
19593;SDS011;9944;48.240;16.478;2024-01-10T21:54:49;22.23;;;12.80;;
19593;SDS011;9944;48.240;16.478;2024-01-10T21:58:52;24.73;;;13.07;;
19593;SDS011;9944;48.240;16.478;2024-01-10T22:02:57;24.47;;;12.63;;
19593;SDS011;9944;48.240;16.478;2024-01-10T22:07:01;25.13;;;13.50;;
19593;SDS011;9944;48.240;16.478;2024-01-10T22:11:04;25.50;;;12.07;;
19593;SDS011;9944;48.240;16.478;2024-01-10T22:15:08;21.03;;;12.27;;
19593;SDS011;9944;48.240;16.478;2024-01-10T22:19:13;21.33;;;11.67;;
19593;SDS011;9944;48.240;16.478;2024-01-10T22:23:16;24.97;;;13.20;;
19593;SDS011;9944;48.240;16.478;2024-01-10T22:27:20;23.47;;;12.07;;
19593;SDS011;9944;48.240;16.478;2024-01-10T22:31:23;23.30;;;12.10;;
19593;SDS011;9944;48.240;16.478;2024-01-10T22:35:28;23.17;;;12.20;;
19593;SDS011;9944;48.240;16.478;2024-01-10T22:39:31;28.97;;;13.10;;
19593;SDS011;9944;48.240;16.478;2024-01-10T22:43:34;24.23;;;12.03;;
19593;SDS011;9944;48.240;16.478;2024-01-10T22:47:37;24.00;;;12.83;;
19593;SDS011;9944;48.240;16.478;2024-01-10T22:51:42;23.27;;;12.93;;
19593;SDS011;9944;48.240;16.478;2024-01-10T22:55:45;24.03;;;12.70;;
19593;SDS011;9944;48.240;16.478;2024-01-10T22:59:49;25.23;;;13.77;;
19593;SDS011;9944;48.240;16.478;2024-01-10T23:03:52;23.37;;;12.73;;
19593;SDS011;9944;48.240;16.478;2024-01-10T23:07:57;21.33;;;12.07;;
19593;SDS011;9944;48.240;16.478;2024-01-10T23:12:00;27.53;;;13.33;;
19593;SDS011;9944;48.240;16.478;2024-01-10T23:16:04;27.07;;;12.93;;
19593;SDS011;9944;48.240;16.478;2024-01-10T23:20:08;24.60;;;12.67;;
19593;SDS011;9944;48.240;16.478;2024-01-10T23:24:13;25.87;;;13.10;;
19593;SDS011;9944;48.240;16.478;2024-01-10T23:28:17;23.50;;;13.00;;
19593;SDS011;9944;48.240;16.478;2024-01-10T23:32:22;22.77;;;12.83;;
19593;SDS011;9944;48.240;16.478;2024-01-10T23:36:25;23.70;;;13.33;;
19593;SDS011;9944;48.240;16.478;2024-01-10T23:40:30;22.70;;;11.57;;
19593;SDS011;9944;48.240;16.478;2024-01-10T23:44:33;23.23;;;12.60;;
19593;SDS011;9944;48.240;16.478;2024-01-10T23:48:37;23.77;;;12.23;;
19593;SDS011;9944;48.240;16.478;2024-01-10T23:52:40;26.37;;;12.83;;